createdAt,value
2019-06-26T00:00:26.995Z,988.65
2019-06-26T00:01:26.954Z,988.60
2019-06-26T00:02:26.903Z,988.65
2019-06-26T00:03:26.857Z,988.63
2019-06-26T00:04:26.809Z,988.68
2019-06-26T00:05:26.763Z,988.65
2019-06-26T00:06:26.723Z,988.69
2019-06-26T00:07:26.673Z,988.65
2019-06-26T00:08:26.624Z,988.67
2019-06-26T00:09:26.579Z,988.68
2019-06-26T00:10:26.533Z,988.68
2019-06-26T00:11:26.487Z,988.71
2019-06-26T00:12:26.441Z,988.72
2019-06-26T00:13:27.085Z,988.68
2019-06-26T00:14:26.349Z,988.70
2019-06-26T00:15:26.542Z,988.72
2019-06-26T00:16:26.271Z,988.75
2019-06-26T00:17:26.212Z,988.74
2019-06-26T00:18:26.167Z,988.76
2019-06-26T00:19:26.119Z,988.74
2019-06-26T00:20:26.072Z,988.75
2019-06-26T00:21:26.034Z,988.75
2019-06-26T00:22:25.980Z,988.75
2019-06-26T00:23:25.934Z,988.77
2019-06-26T00:24:25.892Z,988.82
2019-06-26T00:25:25.843Z,988.75
2019-06-26T00:26:25.807Z,988.76
2019-06-26T00:27:25.748Z,988.75
2019-06-26T00:28:25.706Z,988.74
2019-06-26T00:29:25.656Z,988.72
2019-06-26T00:30:25.617Z,988.74
2019-06-26T00:31:25.564Z,988.74
2019-06-26T00:32:25.522Z,988.75
2019-06-26T00:33:25.471Z,988.77
2019-06-26T00:34:25.426Z,988.75
2019-06-26T00:35:25.380Z,988.73
2019-06-26T00:36:25.332Z,988.73
2019-06-26T00:37:25.288Z,988.76
2019-06-26T00:38:25.241Z,988.73
2019-06-26T00:39:25.205Z,988.74
2019-06-26T00:40:25.148Z,988.74
2019-06-26T00:41:25.101Z,988.76
2019-06-26T00:42:25.056Z,988.73
2019-06-26T00:43:25.075Z,988.77
2019-06-26T00:44:24.963Z,988.77
2019-06-26T00:45:24.916Z,988.80
2019-06-26T00:46:24.870Z,988.79
2019-06-26T00:47:24.825Z,988.78
2019-06-26T00:48:24.777Z,988.78
2019-06-26T00:49:24.733Z,988.85
2019-06-26T00:50:24.691Z,988.78
2019-06-26T00:51:24.639Z,988.78
2019-06-26T00:52:24.592Z,988.79
2019-06-26T00:53:24.547Z,988.84
2019-06-26T00:54:24.516Z,988.83
2019-06-26T00:55:24.456Z,988.83
2019-06-26T00:56:24.441Z,988.82
2019-06-26T00:57:24.362Z,988.85
2019-06-26T00:58:24.314Z,988.84
2019-06-26T00:59:24.269Z,988.84
2019-06-26T01:00:24.222Z,988.84
2019-06-26T01:01:24.198Z,988.84
2019-06-26T01:02:24.131Z,988.85
2019-06-26T01:03:24.085Z,988.84
2019-06-26T01:04:24.038Z,988.88
2019-06-26T01:05:23.995Z,988.85
2019-06-26T01:06:23.944Z,988.87
2019-06-26T01:07:23.902Z,988.85
2019-06-26T01:08:23.852Z,988.86
2019-06-26T01:09:23.807Z,988.85
2019-06-26T01:10:23.760Z,988.83
2019-06-26T01:11:23.726Z,988.88
2019-06-26T01:12:23.669Z,988.90
2019-06-26T01:13:23.620Z,988.87
2019-06-26T01:14:23.576Z,988.91
2019-06-26T01:15:23.551Z,988.91
2019-06-26T01:16:23.483Z,988.90
2019-06-26T01:17:23.437Z,988.89
2019-06-26T01:18:24.037Z,988.92
2019-06-26T01:19:23.348Z,988.90
2019-06-26T01:20:23.305Z,988.86
2019-06-26T01:21:23.249Z,988.91
2019-06-26T01:22:23.208Z,988.92
2019-06-26T01:23:23.160Z,988.90
2019-06-26T01:24:23.110Z,988.94
2019-06-26T01:25:23.064Z,988.93
2019-06-26T01:26:23.020Z,988.94
2019-06-26T01:27:22.971Z,988.95
2019-06-26T01:28:22.924Z,988.93
2019-06-26T01:29:22.879Z,988.96
2019-06-26T01:30:22.834Z,988.99
2019-06-26T01:31:22.799Z,988.99
2019-06-26T01:32:22.739Z,988.98
2019-06-26T01:33:22.693Z,988.98
2019-06-26T01:34:22.646Z,988.96
2019-06-26T01:35:22.604Z,989.00
2019-06-26T01:36:22.554Z,988.97
2019-06-26T01:37:22.549Z,988.96
2019-06-26T01:38:22.461Z,988.97
2019-06-26T01:39:22.415Z,988.97
2019-06-26T01:40:22.368Z,989.00
2019-06-26T01:41:22.322Z,988.99
2019-06-26T01:42:22.276Z,988.98
2019-06-26T01:43:22.234Z,988.95
2019-06-26T01:44:22.182Z,988.94
2019-06-26T01:45:22.136Z,988.98
2019-06-26T01:46:22.089Z,988.99
2019-06-26T01:47:22.044Z,989.00
2019-06-26T01:48:22.003Z,989.02
2019-06-26T01:49:21.951Z,988.95
2019-06-26T01:50:21.961Z,988.99
2019-06-26T01:51:21.862Z,989.01
2019-06-26T01:52:21.811Z,988.99
2019-06-26T01:53:21.769Z,989.00
2019-06-26T01:54:21.719Z,989.03
2019-06-26T01:55:21.672Z,988.99
2019-06-26T01:56:21.628Z,989.05
2019-06-26T01:57:21.581Z,989.00
2019-06-26T01:58:21.535Z,988.96
2019-06-26T01:59:21.489Z,988.98
2019-06-26T02:00:21.444Z,988.97
2019-06-26T02:01:21.394Z,988.98
2019-06-26T02:02:21.349Z,988.95
2019-06-26T02:03:21.302Z,988.96
2019-06-26T02:04:21.267Z,988.96
2019-06-26T02:05:21.208Z,988.95
2019-06-26T02:06:21.163Z,988.94
2019-06-26T02:07:21.115Z,988.97
2019-06-26T02:08:21.069Z,988.93
2019-06-26T02:09:21.021Z,988.98
2019-06-26T02:10:20.977Z,988.94
2019-06-26T02:11:20.947Z,988.92
2019-06-26T02:12:20.888Z,988.92
2019-06-26T02:13:20.836Z,988.92
2019-06-26T02:14:30.487Z,988.91
2019-06-26T02:15:20.743Z,988.94
2019-06-26T02:16:20.698Z,988.90
2019-06-26T02:17:20.650Z,988.91
2019-06-26T02:18:20.605Z,988.90
2019-06-26T02:19:20.557Z,988.90
2019-06-26T02:20:20.509Z,988.91
2019-06-26T02:21:20.466Z,988.90
2019-06-26T02:22:20.417Z,988.91
2019-06-26T02:23:20.371Z,988.89
2019-06-26T02:24:20.323Z,988.91
2019-06-26T02:25:20.322Z,988.87
2019-06-26T02:26:20.231Z,988.90
2019-06-26T02:27:20.185Z,988.90
2019-06-26T02:28:20.136Z,988.90
2019-06-26T02:29:20.091Z,988.86
2019-06-26T02:30:20.045Z,988.92
2019-06-26T02:31:20.005Z,988.88
2019-06-26T02:32:19.976Z,988.90
2019-06-26T02:33:19.904Z,988.88
2019-06-26T02:34:19.858Z,988.87
2019-06-26T02:35:19.905Z,988.88
2019-06-26T02:36:19.766Z,988.91
2019-06-26T02:37:19.720Z,988.88
2019-06-26T02:38:19.675Z,988.88
2019-06-26T02:39:19.625Z,988.88
2019-06-26T02:40:19.582Z,988.90
2019-06-26T02:41:19.539Z,988.93
2019-06-26T02:42:19.486Z,988.90
2019-06-26T02:43:19.440Z,988.91
2019-06-26T02:44:19.394Z,988.92
2019-06-26T02:45:19.346Z,988.94
2019-06-26T02:46:19.309Z,988.92
2019-06-26T02:47:20.792Z,988.94
2019-06-26T02:48:19.224Z,988.91
2019-06-26T02:49:19.162Z,988.94
2019-06-26T02:50:19.118Z,988.95
2019-06-26T02:51:19.069Z,988.91
2019-06-26T02:52:19.022Z,988.94
2019-06-26T02:53:18.974Z,988.92
2019-06-26T02:54:18.926Z,988.92
2019-06-26T02:55:18.888Z,988.93
2019-06-26T02:56:18.835Z,988.92
2019-06-26T02:57:18.793Z,988.88
2019-06-26T02:58:18.741Z,988.89
2019-06-26T02:59:18.694Z,988.91
2019-06-26T03:00:18.650Z,988.88
2019-06-26T03:01:18.605Z,988.89
2019-06-26T03:02:18.564Z,988.94
2019-06-26T03:03:18.516Z,988.89
2019-06-26T03:04:18.466Z,988.91
2019-06-26T03:05:18.534Z,988.95
2019-06-26T03:06:18.367Z,988.99
2019-06-26T03:07:18.321Z,988.98
2019-06-26T03:08:18.275Z,989.01
2019-06-26T03:09:18.230Z,989.00
2019-06-26T03:10:18.180Z,989.00
2019-06-26T03:11:18.133Z,989.00
2019-06-26T03:12:18.086Z,988.99
2019-06-26T03:13:18.040Z,988.96
2019-06-26T03:14:17.993Z,988.99
2019-06-26T03:15:17.948Z,988.97
2019-06-26T03:16:17.903Z,989.00
2019-06-26T03:17:17.856Z,988.98
2019-06-26T03:18:17.807Z,988.99
2019-06-26T03:19:17.760Z,988.96
2019-06-26T03:20:17.713Z,989.00
2019-06-26T03:21:17.666Z,988.99
2019-06-26T03:22:17.620Z,988.96
2019-06-26T03:23:17.575Z,989.00
2019-06-26T03:24:17.526Z,989.02
2019-06-26T03:25:17.480Z,988.98
2019-06-26T03:26:17.434Z,989.00
2019-06-26T03:27:17.387Z,988.99
2019-06-26T03:28:17.339Z,988.95
2019-06-26T03:29:17.292Z,988.96
2019-06-26T03:30:17.246Z,988.96
2019-06-26T03:31:53.279Z,988.98
2019-06-26T03:32:17.153Z,988.97
2019-06-26T03:33:31.635Z,988.99
2019-06-26T03:34:17.059Z,989.02
2019-06-26T03:35:17.014Z,989.04
2019-06-26T03:36:16.988Z,989.02
2019-06-26T03:37:16.921Z,989.06
2019-06-26T03:38:16.874Z,989.06
2019-06-26T03:39:23.637Z,989.06
2019-06-26T03:40:16.780Z,989.06
2019-06-26T03:41:16.788Z,989.04
2019-06-26T03:42:16.684Z,989.06
2019-06-26T03:43:16.639Z,989.06
2019-06-26T03:44:16.592Z,989.07
2019-06-26T03:45:25.549Z,989.06
2019-06-26T03:46:16.498Z,989.08
2019-06-26T03:47:16.466Z,989.11
2019-06-26T03:48:16.404Z,989.15
2019-06-26T03:49:16.358Z,989.11
2019-06-26T03:50:16.313Z,989.15
2019-06-26T03:51:16.274Z,989.15
2019-06-26T03:52:16.217Z,989.11
2019-06-26T03:53:16.177Z,989.16
2019-06-26T03:54:16.125Z,989.16
2019-06-26T03:55:16.080Z,989.14
2019-06-26T03:56:16.038Z,989.17
2019-06-26T03:57:15.985Z,989.17
2019-06-26T03:58:15.936Z,989.16
2019-06-26T03:59:30.644Z,989.16
2019-06-26T04:00:15.845Z,989.18
2019-06-26T04:01:15.800Z,989.18
2019-06-26T04:02:15.752Z,989.17
2019-06-26T04:03:15.703Z,989.21
2019-06-26T04:04:15.657Z,989.15
2019-06-26T04:05:15.610Z,989.19
2019-06-26T04:06:15.562Z,989.18
2019-06-26T04:07:15.516Z,989.21
2019-06-26T04:08:15.470Z,989.22
2019-06-26T04:09:15.438Z,989.24
2019-06-26T04:10:15.382Z,989.24
2019-06-26T04:11:15.329Z,989.27
2019-06-26T04:12:15.281Z,989.26
2019-06-26T04:13:15.234Z,989.25
2019-06-26T04:14:15.190Z,989.26
2019-06-26T04:15:15.142Z,989.28
2019-06-26T04:16:15.096Z,989.27
2019-06-26T04:17:15.050Z,989.24
2019-06-26T04:18:15.004Z,989.29
2019-06-26T04:19:14.955Z,989.26
2019-06-26T04:20:14.907Z,989.32
2019-06-26T04:21:14.862Z,989.28
2019-06-26T04:22:14.819Z,989.30
2019-06-26T04:23:14.765Z,989.30
2019-06-26T04:24:14.719Z,989.28
2019-06-26T04:25:14.678Z,989.29
2019-06-26T04:26:14.634Z,989.31
2019-06-26T04:27:14.581Z,989.33
2019-06-26T04:28:14.531Z,989.33
2019-06-26T04:29:14.484Z,989.30
2019-06-26T04:30:14.442Z,989.33
2019-06-26T04:31:14.391Z,989.31
2019-06-26T04:32:14.345Z,989.31
2019-06-26T04:33:14.296Z,989.32
2019-06-26T04:34:14.254Z,989.34
2019-06-26T04:35:14.206Z,989.34
2019-06-26T04:36:14.162Z,989.34
2019-06-26T04:37:14.115Z,989.29
2019-06-26T04:38:14.062Z,989.36
2019-06-26T04:39:14.014Z,989.36
2019-06-26T04:40:13.967Z,989.35
2019-06-26T04:41:13.921Z,989.40
2019-06-26T04:42:28.652Z,989.40
2019-06-26T04:43:13.831Z,989.40
2019-06-26T04:44:13.779Z,989.39
2019-06-26T04:45:13.733Z,989.40
2019-06-26T04:46:13.686Z,989.41
2019-06-26T04:47:13.650Z,989.45
2019-06-26T04:48:13.595Z,989.49
2019-06-26T04:49:13.545Z,989.46
2019-06-26T04:50:13.498Z,989.52
2019-06-26T04:51:13.454Z,989.54
2019-06-26T04:52:13.405Z,989.55
2019-06-26T04:53:13.367Z,989.56
2019-06-26T04:54:13.316Z,989.57
2019-06-26T04:55:13.298Z,989.63
2019-06-26T04:56:13.217Z,989.59
2019-06-26T04:57:13.176Z,989.61
2019-06-26T04:58:13.126Z,989.65
2019-06-26T04:59:13.080Z,989.64
2019-06-26T05:00:13.029Z,989.65
2019-06-26T05:01:12.981Z,989.65
2019-06-26T05:02:12.937Z,989.61
2019-06-26T05:03:12.889Z,989.62
2019-06-26T05:04:12.860Z,989.64
2019-06-26T05:05:12.796Z,989.64
2019-06-26T05:06:12.753Z,989.60
2019-06-26T05:07:12.710Z,989.66
2019-06-26T05:08:12.653Z,989.65
2019-06-26T05:09:12.615Z,989.66
2019-06-26T05:10:12.600Z,989.69
2019-06-26T05:11:13.063Z,989.69
2019-06-26T05:12:12.466Z,989.71
2019-06-26T05:13:12.417Z,989.73
2019-06-26T05:14:12.371Z,989.74
2019-06-26T05:15:12.325Z,989.73
2019-06-26T05:16:15.813Z,989.72
2019-06-26T05:17:12.230Z,989.76
2019-06-26T05:18:12.205Z,989.77
2019-06-26T05:19:12.137Z,989.79
2019-06-26T05:20:12.090Z,989.76
2019-06-26T05:21:12.638Z,989.78
2019-06-26T05:22:11.997Z,989.74
2019-06-26T05:23:11.952Z,989.73
2019-06-26T05:24:11.902Z,989.72
2019-06-26T05:25:11.855Z,989.71
2019-06-26T05:26:11.808Z,989.71
2019-06-26T05:27:11.761Z,989.72
2019-06-26T05:28:11.713Z,989.71
2019-06-26T05:29:11.667Z,989.70
2019-06-26T05:30:11.621Z,989.70
2019-06-26T05:31:11.585Z,989.73
2019-06-26T05:32:11.531Z,989.74
2019-06-26T05:33:11.478Z,989.77
2019-06-26T05:34:11.439Z,989.79
2019-06-26T05:35:11.386Z,989.78
2019-06-26T05:36:11.338Z,989.78
2019-06-26T05:37:11.291Z,989.84
2019-06-26T05:38:11.246Z,989.86
2019-06-26T05:39:11.199Z,989.86
2019-06-26T05:40:11.161Z,989.84
2019-06-26T05:41:17.672Z,989.88
2019-06-26T05:42:11.057Z,989.87
2019-06-26T05:43:11.009Z,989.86
2019-06-26T05:44:10.963Z,989.92
2019-06-26T05:45:10.916Z,989.92
2019-06-26T05:46:10.868Z,989.90
2019-06-26T05:47:10.831Z,989.94
2019-06-26T05:48:10.776Z,989.94
2019-06-26T05:49:10.729Z,989.97
2019-06-26T05:50:11.007Z,989.97
2019-06-26T05:51:10.640Z,989.96
2019-06-26T05:52:10.586Z,990.00
2019-06-26T05:53:10.584Z,989.98
2019-06-26T05:54:10.497Z,989.97
2019-06-26T05:55:10.451Z,989.95
2019-06-26T05:56:10.401Z,989.97
2019-06-26T05:57:10.356Z,989.96
2019-06-26T05:58:10.309Z,989.99
2019-06-26T05:59:10.257Z,990.03
2019-06-26T06:00:10.241Z,990.03
2019-06-26T06:01:10.169Z,990.01
2019-06-26T06:02:10.145Z,990.07
2019-06-26T06:03:10.081Z,990.07
2019-06-26T06:04:10.022Z,990.11
2019-06-26T06:05:09.974Z,990.05
2019-06-26T06:06:09.970Z,990.07
2019-06-26T06:07:09.880Z,990.06
2019-06-26T06:08:09.836Z,990.04
2019-06-26T06:09:09.788Z,990.08
2019-06-26T06:10:09.741Z,990.05
2019-06-26T06:11:09.695Z,990.04
2019-06-26T06:12:09.646Z,990.03
2019-06-26T06:13:09.603Z,990.06
2019-06-26T06:14:09.552Z,990.07
2019-06-26T06:15:09.509Z,990.06
2019-06-26T06:16:09.458Z,990.10
2019-06-26T06:17:09.417Z,990.06
2019-06-26T06:18:09.366Z,990.08
2019-06-26T06:19:09.319Z,990.09
2019-06-26T06:20:09.286Z,990.10
2019-06-26T06:21:09.233Z,990.10
2019-06-26T06:22:09.178Z,990.08
2019-06-26T06:23:09.131Z,990.11
2019-06-26T06:24:09.082Z,990.14
2019-06-26T06:25:09.056Z,990.13
2019-06-26T06:26:08.992Z,990.08
2019-06-26T06:27:08.943Z,990.05
2019-06-26T06:28:08.893Z,990.08
2019-06-26T06:29:08.850Z,990.06
2019-06-26T06:30:08.806Z,990.02
2019-06-26T06:31:08.755Z,990.04
2019-06-26T06:32:08.779Z,990.05
2019-06-26T06:33:08.659Z,990.07
2019-06-26T06:34:08.620Z,990.06
2019-06-26T06:35:08.566Z,990.09
2019-06-26T06:36:09.747Z,990.09
2019-06-26T06:37:08.472Z,990.07
2019-06-26T06:38:08.427Z,990.08
2019-06-26T06:39:08.378Z,990.08
2019-06-26T06:40:08.426Z,990.09
2019-06-26T06:41:08.283Z,990.09
2019-06-26T06:42:08.238Z,990.10
2019-06-26T06:43:08.190Z,990.13
2019-06-26T06:44:09.119Z,990.15
2019-06-26T06:45:08.095Z,990.18
2019-06-26T06:46:08.065Z,990.16
2019-06-26T06:47:09.095Z,990.15
2019-06-26T06:48:07.955Z,990.19
2019-06-26T06:49:07.908Z,990.17
2019-06-26T06:50:07.860Z,990.18
2019-06-26T06:51:08.629Z,990.19
2019-06-26T06:52:07.767Z,990.20
2019-06-26T06:53:07.720Z,990.20
2019-06-26T06:54:07.674Z,990.23
2019-06-26T06:55:07.630Z,990.26
2019-06-26T06:56:07.579Z,990.24
2019-06-26T06:57:07.535Z,990.28
2019-06-26T06:58:07.485Z,990.31
2019-06-26T06:59:07.439Z,990.35
2019-06-26T07:00:07.407Z,990.36
2019-06-26T07:01:07.345Z,990.38
2019-06-26T07:02:07.300Z,990.38
2019-06-26T07:03:07.250Z,990.39
2019-06-26T07:04:07.206Z,990.40
2019-06-26T07:05:07.179Z,990.37
2019-06-26T07:06:07.115Z,990.37
2019-06-26T07:07:07.067Z,990.39
2019-06-26T07:08:07.016Z,990.34
2019-06-26T07:09:06.974Z,990.39
2019-06-26T07:10:06.923Z,990.35
2019-06-26T07:11:06.876Z,990.34
2019-06-26T07:12:06.834Z,990.36
2019-06-26T07:13:06.787Z,990.37
2019-06-26T07:14:06.741Z,990.35
2019-06-26T07:15:06.688Z,990.36
2019-06-26T07:16:06.643Z,990.38
2019-06-26T07:17:20.040Z,990.36
2019-06-26T07:18:06.547Z,990.37
2019-06-26T07:19:06.500Z,990.38
2019-06-26T07:20:06.514Z,990.35
2019-06-26T07:21:06.419Z,990.39
2019-06-26T07:22:07.456Z,990.40
2019-06-26T07:23:06.315Z,990.43
2019-06-26T07:24:06.265Z,990.39
2019-06-26T07:25:06.219Z,990.40
2019-06-26T07:26:06.171Z,990.40
2019-06-26T07:27:06.128Z,990.38
2019-06-26T07:28:06.126Z,990.44
2019-06-26T07:29:06.031Z,990.39
2019-06-26T07:30:05.984Z,990.40
2019-06-26T07:31:05.940Z,990.38
2019-06-26T07:32:05.897Z,990.38
2019-06-26T07:33:05.844Z,990.42
2019-06-26T07:34:05.828Z,990.47
2019-06-26T07:35:05.750Z,990.41
2019-06-26T07:36:05.703Z,990.50
2019-06-26T07:37:05.659Z,990.43
2019-06-26T07:38:05.616Z,990.48
2019-06-26T07:39:05.589Z,990.49
2019-06-26T07:40:05.519Z,990.47
2019-06-26T07:41:05.473Z,990.45
2019-06-26T07:42:05.424Z,990.43
2019-06-26T07:43:05.376Z,990.45
2019-06-26T07:44:05.344Z,990.46
2019-06-26T07:45:05.283Z,990.46
2019-06-26T07:46:05.242Z,990.50
2019-06-26T07:47:12.677Z,990.51
2019-06-26T07:48:05.144Z,990.51
2019-06-26T07:49:05.095Z,990.51
2019-06-26T07:50:05.050Z,990.50
2019-06-26T07:51:05.011Z,990.50
2019-06-26T07:52:04.953Z,990.53
2019-06-26T07:53:04.907Z,990.57
2019-06-26T07:54:04.863Z,990.55
2019-06-26T07:55:04.814Z,990.58
2019-06-26T07:56:04.767Z,990.52
2019-06-26T07:57:04.731Z,990.58
2019-06-26T07:58:04.867Z,990.55
2019-06-26T07:59:04.632Z,990.56
2019-06-26T08:00:04.587Z,990.58
2019-06-26T08:01:04.538Z,990.60
2019-06-26T08:02:04.524Z,990.60
2019-06-26T08:03:04.859Z,990.61
2019-06-26T08:04:04.393Z,990.57
2019-06-26T08:05:04.348Z,990.56
2019-06-26T08:06:04.308Z,990.61
2019-06-26T08:07:04.257Z,990.58
2019-06-26T08:08:05.144Z,990.63
2019-06-26T08:09:04.160Z,990.66
2019-06-26T08:10:04.113Z,990.66
2019-06-26T08:11:06.537Z,990.68
2019-06-26T08:12:04.030Z,990.69
2019-06-26T08:13:03.974Z,990.70
2019-06-26T08:14:03.937Z,990.69
2019-06-26T08:15:03.892Z,990.73
2019-06-26T08:16:03.834Z,990.70
2019-06-26T08:17:03.789Z,990.71
2019-06-26T08:18:03.745Z,990.75
2019-06-26T08:19:03.702Z,990.71
2019-06-26T08:20:03.648Z,990.72
2019-06-26T08:21:11.894Z,990.75
2019-06-26T08:22:03.564Z,990.75
2019-06-26T08:23:03.506Z,990.75
2019-06-26T08:24:03.462Z,990.78
2019-06-26T08:25:03.415Z,990.78
2019-06-26T08:26:03.367Z,990.77
2019-06-26T08:27:03.334Z,990.78
2019-06-26T08:28:03.273Z,990.80
2019-06-26T08:29:03.229Z,990.78
2019-06-26T08:30:03.234Z,990.79
2019-06-26T08:31:03.145Z,990.78
2019-06-26T08:32:03.087Z,990.83
2019-06-26T08:33:03.040Z,990.81
2019-06-26T08:34:03.649Z,990.81
2019-06-26T08:35:02.946Z,990.80
2019-06-26T08:36:02.953Z,990.80
2019-06-26T08:37:02.857Z,990.79
2019-06-26T08:38:10.232Z,990.78
2019-06-26T08:39:02.759Z,990.76
2019-06-26T08:40:02.712Z,990.75
2019-06-26T08:41:02.675Z,990.75
2019-06-26T08:42:02.637Z,990.76
2019-06-26T08:43:02.576Z,990.72
2019-06-26T08:44:02.530Z,990.78
2019-06-26T08:45:02.480Z,990.84
2019-06-26T08:46:02.433Z,990.76
2019-06-26T08:47:02.390Z,990.74
2019-06-26T08:48:16.768Z,990.77
2019-06-26T08:49:02.349Z,990.78
2019-06-26T08:50:02.712Z,990.79
2019-06-26T08:51:02.221Z,990.74
2019-06-26T08:52:02.225Z,990.77
2019-06-26T08:53:02.282Z,990.76
2019-06-26T08:54:04.656Z,990.78
2019-06-26T08:55:02.019Z,990.75
2019-06-26T08:56:01.968Z,990.74
2019-06-26T08:57:01.921Z,990.78
2019-06-26T08:58:01.877Z,990.78
2019-06-26T08:59:01.828Z,990.78
2019-06-26T09:00:01.784Z,990.78
2019-06-26T09:01:02.698Z,990.74
2019-06-26T09:02:01.689Z,990.77
2019-06-26T09:03:01.642Z,990.77
2019-06-26T09:04:01.596Z,990.79
2019-06-26T09:05:01.548Z,990.78
2019-06-26T09:06:01.627Z,990.76
2019-06-26T09:07:01.469Z,990.77
2019-06-26T09:08:01.441Z,990.78
2019-06-26T09:09:01.367Z,990.76
2019-06-26T09:10:01.335Z,990.78
2019-06-26T09:11:01.281Z,990.76
2019-06-26T09:12:01.225Z,990.74
2019-06-26T09:13:01.177Z,990.75
2019-06-26T09:14:01.476Z,990.76
2019-06-26T09:15:01.093Z,990.70
2019-06-26T09:16:01.047Z,990.72
2019-06-26T09:17:00.992Z,990.75
2019-06-26T09:18:00.949Z,990.75
2019-06-26T09:19:00.897Z,990.73
2019-06-26T09:20:00.859Z,990.72
2019-06-26T09:21:00.808Z,990.72
2019-06-26T09:22:00.758Z,990.71
2019-06-26T09:23:00.722Z,990.72
2019-06-26T09:24:00.664Z,990.68
2019-06-26T09:25:00.640Z,990.69
2019-06-26T09:26:00.571Z,990.71
2019-06-26T09:27:00.528Z,990.71
2019-06-26T09:28:00.479Z,990.72
2019-06-26T09:29:00.438Z,990.68
2019-06-26T09:30:00.386Z,990.71
2019-06-26T09:31:00.358Z,990.68
2019-06-26T09:32:00.295Z,990.72
2019-06-26T09:33:00.308Z,990.72
2019-06-26T09:34:00.238Z,990.73
2019-06-26T09:35:00.191Z,990.75
2019-06-26T09:36:00.158Z,990.79
2019-06-26T09:37:00.061Z,990.78
2019-06-26T09:38:00.124Z,990.82
2019-06-26T09:38:59.978Z,990.82
2019-06-26T09:39:59.925Z,990.85
2019-06-26T09:40:59.888Z,990.81
2019-06-26T09:41:59.828Z,990.83
2019-06-26T09:42:59.788Z,990.83
2019-06-26T09:43:59.741Z,990.81
2019-06-26T09:44:59.693Z,990.82
2019-06-26T09:45:59.643Z,990.84
2019-06-26T09:46:59.597Z,990.80
2019-06-26T09:47:59.552Z,990.80
2019-06-26T09:48:59.514Z,990.82
2019-06-26T09:49:59.526Z,990.84
2019-06-26T09:50:59.456Z,990.84
2019-06-26T09:51:59.379Z,990.88
2019-06-26T09:52:59.323Z,990.88
2019-06-26T09:53:59.273Z,990.86
2019-06-26T09:54:59.234Z,990.86
2019-06-26T09:55:59.179Z,990.87
2019-06-26T09:56:59.139Z,990.84
2019-06-26T09:57:59.088Z,990.84
2019-06-26T09:58:59.307Z,990.86
2019-06-26T09:59:58.995Z,990.86
2019-06-26T10:00:58.957Z,990.83
2019-06-26T10:01:58.904Z,990.82
2019-06-26T10:03:24.734Z,990.78
2019-06-26T10:03:58.817Z,990.82
2019-06-26T10:04:58.811Z,990.80
2019-06-26T10:05:58.720Z,990.82
2019-06-26T10:06:58.671Z,990.81
2019-06-26T10:07:58.624Z,990.79
2019-06-26T10:08:58.581Z,990.78
2019-06-26T10:09:58.547Z,990.80
2019-06-26T10:10:58.487Z,990.78
2019-06-26T10:11:58.439Z,990.76
2019-06-26T10:12:58.394Z,990.71
2019-06-26T10:13:58.347Z,990.75
2019-06-26T10:14:58.302Z,990.72
2019-06-26T10:16:00.571Z,990.76
2019-06-26T10:16:58.213Z,990.76
2019-06-26T10:17:58.162Z,990.73
2019-06-26T10:19:09.402Z,990.75
2019-06-26T10:19:58.077Z,990.79
2019-06-26T10:20:58.026Z,990.73
2019-06-26T10:21:57.978Z,990.80
2019-06-26T10:22:57.931Z,990.76
2019-06-26T10:23:57.894Z,990.79
2019-06-26T10:24:57.838Z,990.76
2019-06-26T10:25:57.793Z,990.76
2019-06-26T10:26:57.747Z,990.77
2019-06-26T10:27:57.700Z,990.77
2019-06-26T10:28:57.670Z,990.78
2019-06-26T10:29:57.612Z,990.75
2019-06-26T10:30:57.570Z,990.75
2019-06-26T10:31:57.515Z,990.75
2019-06-26T10:32:57.470Z,990.78
2019-06-26T10:33:57.424Z,990.76
2019-06-26T10:34:57.388Z,990.76
2019-06-26T10:35:57.331Z,990.74
2019-06-26T10:36:57.286Z,990.73
2019-06-26T10:37:57.241Z,990.73
2019-06-26T10:38:57.194Z,990.74
2019-06-26T10:39:57.146Z,990.75
2019-06-26T10:40:57.101Z,990.74
2019-06-26T10:41:57.058Z,990.73
2019-06-26T10:42:57.012Z,990.70
2019-06-26T10:43:56.963Z,990.69
2019-06-26T10:44:56.916Z,990.71
2019-06-26T10:45:56.875Z,990.69
2019-06-26T10:46:56.824Z,990.72
2019-06-26T10:47:56.788Z,990.71
2019-06-26T10:48:56.732Z,990.70
2019-06-26T10:49:56.711Z,990.70
2019-06-26T10:50:58.930Z,990.72
2019-06-26T10:51:56.595Z,990.69
2019-06-26T10:52:56.550Z,990.66
2019-06-26T10:53:56.504Z,990.64
2019-06-26T10:54:56.456Z,990.63
2019-06-26T10:55:56.411Z,990.68
2019-06-26T10:56:56.365Z,990.62
2019-06-26T10:57:56.321Z,990.64
2019-06-26T10:58:56.273Z,990.62
2019-06-26T10:59:56.237Z,990.63
2019-06-26T11:00:56.182Z,990.60
2019-06-26T11:01:56.135Z,990.58
2019-06-26T11:02:56.126Z,990.59
2019-06-26T11:03:56.042Z,990.61
2019-06-26T11:04:56.007Z,990.57
2019-06-26T11:05:55.952Z,990.54
2019-06-26T11:06:55.906Z,990.54
2019-06-26T11:07:55.857Z,990.56
2019-06-26T11:08:55.813Z,990.56
2019-06-26T11:09:55.772Z,990.50
2019-06-26T11:10:55.746Z,990.51
2019-06-26T11:11:55.674Z,990.54
2019-06-26T11:12:55.636Z,990.54
2019-06-26T11:13:55.584Z,990.54
2019-06-26T11:14:55.567Z,990.56
2019-06-26T11:15:55.490Z,990.48
2019-06-26T11:16:55.444Z,990.53
2019-06-26T11:17:55.402Z,990.54
2019-06-26T11:18:55.355Z,990.54
2019-06-26T11:19:55.729Z,990.50
2019-06-26T11:20:55.263Z,990.46
2019-06-26T11:21:55.216Z,990.43
2019-06-26T11:22:55.169Z,990.44
2019-06-26T11:23:55.124Z,990.42
2019-06-26T11:24:55.079Z,990.45
2019-06-26T11:25:55.038Z,990.44
2019-06-26T11:26:54.991Z,990.44
2019-06-26T11:27:54.943Z,990.44
2019-06-26T11:28:54.894Z,990.43
2019-06-26T11:29:54.854Z,990.40
2019-06-26T11:30:54.803Z,990.42
2019-06-26T11:31:54.759Z,990.43
2019-06-26T11:32:54.713Z,990.45
2019-06-26T11:33:54.667Z,990.41
2019-06-26T11:34:54.621Z,990.41
2019-06-26T11:35:54.576Z,990.39
2019-06-26T11:37:03.750Z,990.43
2019-06-26T11:37:54.483Z,990.43
2019-06-26T11:38:54.449Z,990.40
2019-06-26T11:39:54.394Z,990.39
2019-06-26T11:40:54.359Z,990.41
2019-06-26T11:41:54.299Z,990.39
2019-06-26T11:42:54.256Z,990.41
2019-06-26T11:43:54.208Z,990.42
2019-06-26T11:44:54.698Z,990.44
2019-06-26T11:45:54.116Z,990.47
2019-06-26T11:46:54.072Z,990.47
2019-06-26T11:47:54.081Z,990.48
2019-06-26T11:48:54.073Z,990.48
2019-06-26T11:49:59.768Z,990.46
2019-06-26T11:50:53.888Z,990.42
2019-06-26T11:51:53.841Z,990.44
2019-06-26T11:52:53.800Z,990.41
2019-06-26T11:53:53.780Z,990.38
2019-06-26T11:55:02.791Z,990.38
2019-06-26T11:55:53.658Z,990.36
2019-06-26T11:56:53.616Z,990.40
2019-06-26T11:57:53.568Z,990.40
2019-06-26T11:58:53.529Z,990.40
2019-06-26T11:59:53.484Z,990.37
2019-06-26T12:00:53.432Z,990.36
2019-06-26T12:01:53.463Z,990.38
2019-06-26T12:02:53.345Z,990.42
2019-06-26T12:03:53.297Z,990.40
2019-06-26T12:04:53.250Z,990.42
2019-06-26T12:05:53.201Z,990.36
2019-06-26T12:06:53.187Z,990.37
2019-06-26T12:07:53.112Z,990.37
2019-06-26T12:08:53.069Z,990.35
2019-06-26T12:09:53.072Z,990.37
2019-06-26T12:10:52.974Z,990.35
2019-06-26T12:11:52.941Z,990.32
2019-06-26T12:12:52.882Z,990.31
2019-06-26T12:13:52.837Z,990.30
2019-06-26T12:14:52.793Z,990.33
2019-06-26T12:15:52.759Z,990.27
2019-06-26T12:16:52.746Z,990.25
2019-06-26T12:17:52.655Z,990.25
2019-06-26T12:18:52.610Z,990.25
2019-06-26T12:19:52.797Z,990.24
2019-06-26T12:20:52.520Z,990.26
2019-06-26T12:21:52.486Z,990.22
2019-06-26T12:22:52.437Z,990.25
2019-06-26T12:23:52.381Z,990.25
2019-06-26T12:24:52.335Z,990.23
2019-06-26T12:25:52.325Z,990.21
2019-06-26T12:26:52.260Z,990.25
2019-06-26T12:27:52.199Z,990.23